createdAt,value
2023-02-24T00:00:42.161Z,96002.56
2023-02-24T00:03:27.320Z,95998.66
2023-02-24T00:06:12.320Z,96008.50
2023-02-24T00:08:57.314Z,96015.59
2023-02-24T00:11:42.064Z,96013.97
2023-02-24T00:14:27.150Z,96010.50
2023-02-24T00:17:12.210Z,96006.00
2023-02-24T00:19:57.589Z,96005.66
2023-02-24T00:22:42.603Z,96008.13
2023-02-24T00:25:27.441Z,96006.81
2023-02-24T00:28:12.499Z,96000.22
2023-02-24T00:30:57.569Z,95989.81
2023-02-24T00:33:42.862Z,95993.63
2023-02-24T00:36:27.738Z,95980.47
2023-02-24T00:39:12.669Z,95975.41
2023-02-24T00:41:57.539Z,95979.78
2023-02-24T00:44:42.480Z,95979.50
2023-02-24T00:47:27.415Z,95981.25
2023-02-24T00:50:12.270Z,95985.34
2023-02-24T00:52:57.337Z,95972.59
2023-02-24T00:55:42.201Z,95969.81
2023-02-24T00:58:27.082Z,95971.59
2023-02-24T01:01:11.954Z,95967.19
2023-02-24T01:03:56.851Z,95978.84
2023-02-24T01:06:41.770Z,95973.56
2023-02-24T01:09:26.689Z,95968.91
2023-02-24T01:12:11.850Z,95957.25
2023-02-24T01:14:56.778Z,95952.72
2023-02-24T01:17:41.773Z,95949.44
2023-02-24T01:20:26.543Z,95947.44
2023-02-24T01:23:11.394Z,95944.19
2023-02-24T01:25:56.193Z,95944.81
2023-02-24T01:28:41.058Z,95943.75
2023-02-24T01:31:26.281Z,95946.88
2023-02-24T01:34:11.242Z,95943.09
2023-02-24T01:36:56.269Z,95949.16
2023-02-24T01:39:41.054Z,95942.53
2023-02-24T01:42:26.035Z,95941.31
2023-02-24T01:45:10.886Z,95946.78
2023-02-24T01:47:55.912Z,95937.03
2023-02-24T01:50:40.857Z,95931.56
2023-02-24T01:53:25.779Z,95926.06
2023-02-24T01:56:10.646Z,95922.28
2023-02-24T01:58:55.379Z,95920.69
2023-02-24T02:01:40.507Z,95917.09
2023-02-24T02:04:25.691Z,95917.59
2023-02-24T02:07:10.812Z,95921.00
2023-02-24T02:09:55.634Z,95906.31
2023-02-24T02:12:40.577Z,95910.81
2023-02-24T02:15:25.593Z,95896.22
2023-02-24T02:18:10.435Z,95895.78
2023-02-24T02:20:55.288Z,95893.63
2023-02-24T02:23:40.160Z,95893.72
2023-02-24T02:26:25.123Z,95897.34
2023-02-24T02:29:09.881Z,95900.22
2023-02-24T02:31:54.860Z,95887.28
2023-02-24T02:34:39.558Z,95889.94
2023-02-24T02:37:24.615Z,95894.31
2023-02-24T02:40:09.492Z,95896.28
2023-02-24T02:42:54.469Z,95888.84
2023-02-24T02:45:39.530Z,95891.09
2023-02-24T02:48:24.401Z,95886.63
2023-02-24T02:51:09.358Z,95881.38
2023-02-24T02:53:54.165Z,95879.81
2023-02-24T02:56:39.134Z,95887.50
2023-02-24T02:59:23.944Z,95873.06
2023-02-24T03:02:09.082Z,95871.22
2023-02-24T03:04:53.884Z,95870.41
2023-02-24T03:07:38.772Z,95876.78
2023-02-24T03:10:23.871Z,95871.91
2023-02-24T03:13:08.789Z,95875.94
2023-02-24T03:15:53.879Z,95880.03
2023-02-24T03:18:38.745Z,95868.13
2023-02-24T03:21:24.181Z,95869.78
2023-02-24T03:24:09.078Z,95866.50
2023-02-24T03:26:54.043Z,95870.13
2023-02-24T03:29:38.887Z,95881.28
2023-02-24T03:32:23.725Z,95880.88
2023-02-24T03:35:09.126Z,95877.25
2023-02-24T03:37:54.019Z,95870.88
2023-02-24T03:40:39.078Z,95878.25
2023-02-24T03:43:24.007Z,95870.16
2023-02-24T03:46:08.965Z,95868.63
2023-02-24T03:48:54.326Z,95878.22
2023-02-24T03:51:39.313Z,95880.22
2023-02-24T03:54:24.316Z,95872.53
2023-02-24T03:57:09.086Z,95867.72
2023-02-24T03:59:54.095Z,95868.94
2023-02-24T04:02:38.912Z,95860.53
2023-02-24T04:05:23.810Z,95863.38
2023-02-24T04:08:08.722Z,95871.16
2023-02-24T04:10:53.576Z,95877.38
2023-02-24T04:13:38.410Z,95875.84
2023-02-24T04:16:23.241Z,95873.47
2023-02-24T04:19:08.252Z,95876.69
2023-02-24T04:21:53.005Z,95881.97
2023-02-24T04:24:38.174Z,95878.72
2023-02-24T04:27:22.995Z,95867.66
2023-02-24T04:30:07.860Z,95867.00
2023-02-24T04:32:52.636Z,95863.69
2023-02-24T04:35:37.665Z,95866.16
2023-02-24T04:38:22.473Z,95866.66
2023-02-24T04:41:07.369Z,95860.66
2023-02-24T04:43:52.293Z,95859.81
2023-02-24T04:46:37.254Z,95867.28
2023-02-24T04:49:22.201Z,95858.97
2023-02-24T04:52:06.992Z,95862.69
2023-02-24T04:54:51.863Z,95863.81
2023-02-24T04:57:36.625Z,95865.53
2023-02-24T05:00:21.724Z,95863.63
2023-02-24T05:03:06.644Z,95851.22
2023-02-24T05:05:51.496Z,95856.97
2023-02-24T05:08:36.390Z,95849.19
2023-02-24T05:11:21.502Z,95852.38
2023-02-24T05:14:06.627Z,95851.56
2023-02-24T05:16:51.539Z,95849.25
2023-02-24T05:19:36.440Z,95849.44
2023-02-24T05:22:21.455Z,95847.88
2023-02-24T05:25:06.355Z,95849.44
2023-02-24T05:27:51.204Z,95847.41
2023-02-24T05:30:36.244Z,95840.59
2023-02-24T05:33:21.592Z,95831.66
2023-02-24T05:36:06.527Z,95824.31
2023-02-24T05:38:51.447Z,95819.19
2023-02-24T05:41:36.295Z,95821.53
2023-02-24T05:44:21.327Z,95821.50
2023-02-24T05:47:06.302Z,95823.69
2023-02-24T05:49:51.562Z,95815.16
2023-02-24T05:52:36.654Z,95818.69
2023-02-24T05:55:21.451Z,95818.94
2023-02-24T05:58:06.396Z,95815.06
2023-02-24T06:00:51.165Z,95816.81
2023-02-24T06:03:36.212Z,95804.03
2023-02-24T06:06:20.962Z,95804.69
2023-02-24T06:09:05.918Z,95802.69
2023-02-24T06:11:50.758Z,95808.22
2023-02-24T06:14:35.696Z,95809.84
2023-02-24T06:17:20.541Z,95808.47
2023-02-24T06:20:05.473Z,95807.88
2023-02-24T06:22:50.365Z,95814.81
2023-02-24T06:25:35.192Z,95815.53
2023-02-24T06:28:20.092Z,95821.09
2023-02-24T06:31:04.941Z,95826.47
2023-02-24T06:33:49.894Z,95833.44
2023-02-24T06:36:34.789Z,95829.16
2023-02-24T06:39:19.710Z,95829.44
2023-02-24T06:42:04.578Z,95828.81
2023-02-24T06:44:49.555Z,95828.63
2023-02-24T06:47:34.587Z,95829.56
2023-02-24T06:50:19.343Z,95827.41
2023-02-24T06:53:04.122Z,95827.56
2023-02-24T06:55:49.075Z,95822.72
2023-02-24T06:58:34.010Z,95821.47
2023-02-24T07:01:19.106Z,95829.16
2023-02-24T07:04:04.382Z,95825.28
2023-02-24T07:06:49.168Z,95836.66
2023-02-24T07:09:33.941Z,95832.69
2023-02-24T07:12:18.812Z,95840.19
2023-02-24T07:15:03.753Z,95833.09
2023-02-24T07:17:48.597Z,95831.97
2023-02-24T07:20:33.391Z,95836.81
2023-02-24T07:23:18.287Z,95839.31
2023-02-24T07:26:03.122Z,95841.03
2023-02-24T07:28:48.125Z,95837.38
2023-02-24T07:31:33.081Z,95841.34
2023-02-24T07:34:17.889Z,95832.44
2023-02-24T07:37:02.978Z,95828.19
2023-02-24T07:39:47.780Z,95824.31
2023-02-24T07:42:32.777Z,95827.72
2023-02-24T07:45:17.740Z,95823.44
2023-02-24T07:48:02.583Z,95823.28
2023-02-24T07:50:47.301Z,95820.31
2023-02-24T07:53:32.152Z,95815.06
2023-02-24T07:56:17.030Z,95820.31
2023-02-24T07:59:01.921Z,95815.59
2023-02-24T08:01:46.708Z,95817.19
2023-02-24T08:04:31.562Z,95815.25
2023-02-24T08:07:16.452Z,95812.63
2023-02-24T08:10:01.232Z,95817.47
2023-02-24T08:12:46.236Z,95822.91
2023-02-24T08:15:31.149Z,95817.81
2023-02-24T08:18:16.256Z,95816.91
2023-02-24T08:21:01.072Z,95814.72
2023-02-24T08:23:46.004Z,95818.28
2023-02-24T08:26:30.961Z,95797.69
2023-02-24T08:29:15.797Z,95799.84
2023-02-24T08:32:01.359Z,95794.63
2023-02-24T08:34:46.682Z,95787.59
2023-02-24T08:37:31.765Z,95777.56
2023-02-24T08:40:16.677Z,95779.94
2023-02-24T08:43:01.503Z,95779.13
2023-02-24T08:45:46.426Z,95787.13
2023-02-24T08:48:31.437Z,95788.34
2023-02-24T08:51:16.281Z,95776.59
2023-02-24T08:54:01.082Z,95771.13
2023-02-24T08:56:45.929Z,95769.13
2023-02-24T08:59:30.952Z,95768.78
2023-02-24T09:02:15.794Z,95769.50
2023-02-24T09:05:00.674Z,95761.91
2023-02-24T09:07:45.520Z,95762.03
2023-02-24T09:10:30.474Z,95760.91
2023-02-24T09:13:15.306Z,95761.53
2023-02-24T09:16:00.215Z,95759.91
2023-02-24T09:18:45.039Z,95752.84
2023-02-24T09:21:29.862Z,95750.19
2023-02-24T09:24:16.852Z,95744.78
2023-02-24T09:27:02.185Z,95736.91
2023-02-24T09:29:47.283Z,95727.59
2023-02-24T09:32:32.301Z,95740.16
2023-02-24T09:35:17.512Z,95727.88
2023-02-24T09:38:02.232Z,95724.91
2023-02-24T09:40:47.202Z,95728.56
2023-02-24T09:43:32.051Z,95721.56
2023-02-24T09:46:17.086Z,95718.56
2023-02-24T09:49:02.247Z,95710.22
2023-02-24T09:51:47.119Z,95707.47
2023-02-24T09:54:32.176Z,95694.25
2023-02-24T09:57:17.082Z,95701.50
2023-02-24T10:00:02.551Z,95695.16
2023-02-24T10:02:47.342Z,95690.53
2023-02-24T10:05:32.349Z,95696.28
2023-02-24T10:08:17.169Z,95685.31
2023-02-24T10:11:02.213Z,95691.19
2023-02-24T10:13:47.211Z,95695.56
2023-02-24T10:16:32.073Z,95696.59
2023-02-24T10:19:16.887Z,95699.31
2023-02-24T10:22:01.725Z,95694.56
2023-02-24T10:24:46.648Z,95686.94
2023-02-24T10:27:31.417Z,95687.78
2023-02-24T10:30:16.309Z,95691.25
2023-02-24T10:33:01.269Z,95687.75
2023-02-24T10:35:46.514Z,95687.16
2023-02-24T10:38:31.514Z,95678.56
2023-02-24T10:41:16.413Z,95685.47
2023-02-24T10:44:01.450Z,95684.28
2023-02-24T10:46:46.758Z,95680.03
2023-02-24T10:49:31.973Z,95674.91
2023-02-24T10:52:16.901Z,95662.09
2023-02-24T10:55:01.769Z,95649.50
2023-02-24T10:57:58.102Z,95655.44
2023-02-24T11:00:43.762Z,95654.97
2023-02-24T11:03:32.949Z,95652.53
2023-02-24T11:06:17.869Z,95654.69
2023-02-24T11:09:02.769Z,95647.53
2023-02-24T11:11:47.586Z,95641.31
2023-02-24T11:14:32.381Z,95643.97
2023-02-24T11:17:17.182Z,95635.25
2023-02-24T11:20:02.174Z,95635.38
2023-02-24T11:22:46.966Z,95623.34
2023-02-24T11:25:31.862Z,95626.47
2023-02-24T11:28:16.890Z,95626.16
2023-02-24T11:31:01.897Z,95630.03
2023-02-24T11:33:47.260Z,95611.69
2023-02-24T11:36:32.168Z,95608.06
2023-02-24T11:39:21.257Z,95600.69
2023-02-24T11:42:06.474Z,95594.91
2023-02-24T11:44:51.418Z,95594.16
2023-02-24T11:47:36.306Z,95590.84
2023-02-24T11:50:21.106Z,95579.97
2023-02-24T11:53:06.010Z,95576.13
2023-02-24T11:55:50.899Z,95574.47
2023-02-24T11:58:35.801Z,95569.09
2023-02-24T12:01:21.730Z,95572.16
2023-02-24T12:04:07.056Z,95565.44
2023-02-24T12:06:51.903Z,95560.09
2023-02-24T12:09:36.799Z,95561.00
2023-02-24T12:12:22.232Z,95549.22
2023-02-24T12:15:06.998Z,95539.66
2023-02-24T12:17:51.705Z,95536.06
2023-02-24T12:20:36.590Z,95537.56
2023-02-24T12:23:21.478Z,95537.22
2023-02-24T12:26:06.400Z,95530.41
2023-02-24T12:28:51.723Z,95521.94
2023-02-24T12:31:36.685Z,95510.72
2023-02-24T12:34:21.889Z,95508.63
2023-02-24T12:37:06.706Z,95515.59
2023-02-24T12:39:51.585Z,95511.59
2023-02-24T12:42:36.544Z,95515.88
2023-02-24T12:45:21.451Z,95508.66
2023-02-24T12:48:06.235Z,95513.81
2023-02-24T12:50:51.125Z,95513.63
2023-02-24T12:53:35.863Z,95509.44
2023-02-24T12:56:20.786Z,95501.22
2023-02-24T12:59:05.679Z,95490.81
2023-02-24T13:01:50.932Z,95484.66
2023-02-24T13:04:35.755Z,95482.75
2023-02-24T13:07:20.746Z,95470.53
2023-02-24T13:10:05.659Z,95467.47
2023-02-24T13:12:50.511Z,95458.88
2023-02-24T13:15:35.424Z,95460.59
2023-02-24T13:18:20.432Z,95452.78
2023-02-24T13:21:05.465Z,95448.41
2023-02-24T13:23:50.272Z,95447.28
2023-02-24T13:26:35.231Z,95443.25
2023-02-24T13:29:20.142Z,95446.19
2023-02-24T13:32:05.088Z,95440.56
2023-02-24T13:34:50.471Z,95442.34
2023-02-24T13:37:35.157Z,95437.59
2023-02-24T13:40:20.136Z,95426.53
2023-02-24T13:43:05.011Z,95425.00
2023-02-24T13:45:49.856Z,95423.72
2023-02-24T13:48:34.750Z,95414.91
2023-02-24T13:51:20.024Z,95418.91
2023-02-24T13:54:05.088Z,95421.53
2023-02-24T13:56:49.852Z,95407.25
2023-02-24T13:59:34.808Z,95396.53
2023-02-24T14:02:21.006Z,95397.28
2023-02-24T14:05:06.044Z,95393.28
2023-02-24T14:07:50.838Z,95395.38
2023-02-24T14:10:35.791Z,95390.16
2023-02-24T14:13:20.667Z,95381.63
2023-02-24T14:16:05.673Z,95386.13
2023-02-24T14:18:50.590Z,95371.44
2023-02-24T14:21:35.383Z,95377.84
2023-02-24T14:24:20.292Z,95368.25
2023-02-24T14:27:05.309Z,95368.63
2023-02-24T14:29:50.226Z,95358.88
2023-02-24T14:32:35.217Z,95360.75
2023-02-24T14:35:20.591Z,95357.94
2023-02-24T14:38:05.412Z,95358.09
2023-02-24T14:40:50.218Z,95360.88
2023-02-24T14:43:34.966Z,95352.03
2023-02-24T14:46:20.195Z,95347.31
2023-02-24T14:49:06.031Z,95350.03
2023-02-24T14:51:50.787Z,95341.88
2023-02-24T14:54:35.807Z,95341.44
2023-02-24T14:57:20.645Z,95340.38
2023-02-24T15:00:05.569Z,95342.72
2023-02-24T15:02:50.511Z,95336.72
2023-02-24T15:05:35.316Z,95334.44
2023-02-24T15:08:20.122Z,95326.56
2023-02-24T15:11:05.154Z,95322.81
2023-02-24T15:13:50.153Z,95313.28
2023-02-24T15:16:34.923Z,95316.22
2023-02-24T15:19:19.839Z,95313.00
2023-02-24T15:22:04.811Z,95311.13
2023-02-24T15:24:49.799Z,95294.88
2023-02-24T15:27:34.945Z,95297.34
2023-02-24T15:30:20.175Z,95296.72
2023-02-24T15:33:05.314Z,95298.38
2023-02-24T15:35:50.294Z,95297.28
2023-02-24T15:38:35.222Z,95297.34
2023-02-24T15:41:20.105Z,95290.03
2023-02-24T15:44:05.193Z,95286.34
2023-02-24T15:46:50.277Z,95291.94
2023-02-24T15:49:35.467Z,95294.69
2023-02-24T15:52:20.502Z,95296.63
2023-02-24T15:55:05.482Z,95304.16
2023-02-24T15:57:50.363Z,95300.13
2023-02-24T16:00:35.282Z,95305.22
2023-02-24T16:03:20.277Z,95309.78
2023-02-24T16:06:05.031Z,95310.06
2023-02-24T16:08:50.005Z,95301.47
2023-02-24T16:11:35.039Z,95307.09
2023-02-24T16:14:22.338Z,95301.72
2023-02-24T16:17:07.617Z,95297.72
2023-02-24T16:19:52.374Z,95294.75
2023-02-24T16:22:37.296Z,95290.19
2023-02-24T16:25:22.199Z,95290.16
2023-02-24T16:28:06.939Z,95284.28
2023-02-24T16:30:52.075Z,95282.88
2023-02-24T16:33:53.318Z,95277.00
2023-02-24T16:36:39.369Z,95275.34
2023-02-24T16:39:24.230Z,95271.41
2023-02-24T16:42:09.219Z,95267.84
2023-02-24T16:44:54.233Z,95279.91
2023-02-24T16:47:39.104Z,95286.53
2023-02-24T16:50:24.114Z,95287.38
2023-02-24T16:53:08.889Z,95274.47
2023-02-24T16:55:53.761Z,95277.31
2023-02-24T16:58:38.567Z,95273.78
2023-02-24T17:01:23.629Z,95277.00
2023-02-24T17:04:08.435Z,95276.53
2023-02-24T17:06:53.344Z,95277.84
2023-02-24T17:09:38.305Z,95277.59
2023-02-24T17:12:23.279Z,95276.41
2023-02-24T17:15:08.205Z,95282.75
2023-02-24T17:17:52.984Z,95281.75
2023-02-24T17:20:37.885Z,95292.50
2023-02-24T17:23:22.626Z,95288.81
2023-02-24T17:26:07.612Z,95290.47
2023-02-24T17:28:52.520Z,95294.97
2023-02-24T17:31:37.384Z,95292.28
2023-02-24T17:34:22.737Z,95292.63
2023-02-24T17:37:07.592Z,95295.81
2023-02-24T17:39:52.637Z,95294.16
2023-02-24T17:42:37.481Z,95298.91
2023-02-24T17:45:22.240Z,95292.44
2023-02-24T17:48:07.081Z,95294.94
2023-02-24T17:50:52.103Z,95296.41
2023-02-24T17:53:36.930Z,95299.72
2023-02-24T17:56:21.968Z,95301.50
2023-02-24T17:59:07.269Z,95298.78
2023-02-24T18:01:52.204Z,95301.50
2023-02-24T18:04:37.145Z,95304.50
2023-02-24T18:07:21.891Z,95297.94
2023-02-24T18:10:06.818Z,95297.47
2023-02-24T18:12:51.726Z,95310.75
2023-02-24T18:15:36.614Z,95313.16
2023-02-24T18:18:21.567Z,95319.78
2023-02-24T18:21:06.441Z,95324.63
2023-02-24T18:23:51.364Z,95319.84
2023-02-24T18:26:36.272Z,95325.63
2023-02-24T18:29:21.258Z,95332.84
2023-02-24T18:32:06.048Z,95327.22
2023-02-24T18:34:51.226Z,95340.09
2023-02-24T18:37:36.010Z,95336.97
2023-02-24T18:40:21.172Z,95336.78
2023-02-24T18:43:06.275Z,95336.28
2023-02-24T18:45:51.294Z,95340.91
2023-02-24T18:48:36.255Z,95338.94
2023-02-24T18:51:21.114Z,95345.50
2023-02-24T18:54:06.020Z,95334.34
2023-02-24T18:56:50.880Z,95334.16
2023-02-24T18:59:35.809Z,95340.66
2023-02-24T19:02:20.641Z,95338.94
2023-02-24T19:05:05.559Z,95334.19
2023-02-24T19:07:50.528Z,95338.69
2023-02-24T19:10:35.425Z,95334.47
2023-02-24T19:13:20.309Z,95342.75
2023-02-24T19:16:05.204Z,95342.31
2023-02-24T19:18:50.009Z,95350.16
2023-02-24T19:21:34.920Z,95352.50
2023-02-24T19:24:19.762Z,95350.00
2023-02-24T19:27:04.602Z,95351.66
2023-02-24T19:29:49.656Z,95346.41
2023-02-24T19:32:34.658Z,95352.63
2023-02-24T19:35:20.016Z,95354.28
2023-02-24T19:38:04.910Z,95355.72
2023-02-24T19:40:49.666Z,95361.63
2023-02-24T19:43:34.750Z,95359.56
2023-02-24T19:46:19.685Z,95363.72
2023-02-24T19:49:05.086Z,95375.88
2023-02-24T19:51:50.038Z,95388.06
2023-02-24T19:54:35.116Z,95381.59
2023-02-24T19:57:19.993Z,95381.81
2023-02-24T20:00:04.905Z,95381.59
2023-02-24T20:02:49.812Z,95379.69
2023-02-24T20:05:34.759Z,95387.78
2023-02-24T20:08:19.539Z,95390.63
2023-02-24T20:11:04.176Z,95393.59
2023-02-24T20:13:48.978Z,95398.94
2023-02-24T20:16:33.772Z,95405.28
2023-02-24T20:19:18.698Z,95404.00
2023-02-24T20:22:03.537Z,95417.47
2023-02-24T20:24:48.508Z,95411.16
2023-02-24T20:27:33.505Z,95406.69
2023-02-24T20:30:18.377Z,95412.72
2023-02-24T20:33:03.451Z,95408.69
2023-02-24T20:35:48.249Z,95403.44
2023-02-24T20:38:33.093Z,95411.78
2023-02-24T20:41:17.949Z,95414.69
2023-02-24T20:44:02.755Z,95401.94
2023-02-24T20:46:47.601Z,95410.06
2023-02-24T20:49:32.442Z,95414.34
2023-02-24T20:52:17.420Z,95409.44
2023-02-24T20:55:02.288Z,95418.56
2023-02-24T20:57:47.211Z,95417.72
2023-02-24T21:00:32.008Z,95420.91
2023-02-24T21:03:16.865Z,95421.69
2023-02-24T21:06:09.861Z,95428.84
2023-02-24T21:09:06.562Z,95429.44
2023-02-24T21:11:51.489Z,95435.16
2023-02-24T21:14:36.292Z,95438.53
2023-02-24T21:17:21.274Z,95445.72
2023-02-24T21:20:06.054Z,95446.47
2023-02-24T21:22:51.021Z,95459.41
2023-02-24T21:25:35.831Z,95456.78
2023-02-24T21:28:20.690Z,95468.94
2023-02-24T21:31:05.638Z,95474.75
2023-02-24T21:33:50.347Z,95469.69
2023-02-24T21:36:35.311Z,95465.97
2023-02-24T21:39:20.070Z,95472.31
2023-02-24T21:42:04.965Z,95473.47
2023-02-24T21:44:49.810Z,95477.94
2023-02-24T21:47:34.734Z,95475.28
2023-02-24T21:50:19.589Z,95477.38
2023-02-24T21:53:04.603Z,95487.63
2023-02-24T21:55:49.446Z,95499.06
2023-02-24T21:58:34.428Z,95501.03
2023-02-24T22:01:19.363Z,95506.69
2023-02-24T22:04:04.707Z,95504.38
2023-02-24T22:06:49.657Z,95510.16
2023-02-24T22:09:34.413Z,95503.69
2023-02-24T22:12:19.417Z,95502.66
2023-02-24T22:15:04.347Z,95503.44
2023-02-24T22:17:49.237Z,95504.16
2023-02-24T22:20:34.157Z,95512.31
2023-02-24T22:23:19.020Z,95515.03
2023-02-24T22:26:03.965Z,95519.97
2023-02-24T22:28:48.687Z,95528.34
2023-02-24T22:31:33.638Z,95524.72
2023-02-24T22:34:18.419Z,95529.81
2023-02-24T22:37:03.331Z,95539.56
2023-02-24T22:39:48.148Z,95540.66
2023-02-24T22:42:32.991Z,95530.22
2023-02-24T22:45:18.497Z,95532.16
2023-02-24T22:48:03.417Z,95547.50
2023-02-24T22:50:48.319Z,95541.72
2023-02-24T22:53:33.196Z,95544.19
2023-02-24T22:56:18.276Z,95557.97
2023-02-24T22:59:06.579Z,95550.16
2023-02-24T23:01:51.430Z,95557.72
2023-02-24T23:04:36.404Z,95562.59
2023-02-24T23:07:21.250Z,95563.06
2023-02-24T23:10:06.298Z,95572.31
2023-02-24T23:12:51.366Z,95566.75
2023-02-24T23:15:36.440Z,95550.91
2023-02-24T23:18:21.201Z,95559.25
2023-02-24T23:21:06.019Z,95545.56
2023-02-24T23:23:51.072Z,95550.91
2023-02-24T23:26:35.933Z,95541.97
2023-02-24T23:29:20.757Z,95550.44
2023-02-24T23:32:05.658Z,95551.47
2023-02-24T23:34:50.924Z,95555.19
2023-02-24T23:37:35.773Z,95563.66
2023-02-24T23:40:20.903Z,95558.66
2023-02-24T23:43:05.852Z,95557.75
2023-02-24T23:45:50.711Z,95549.59
2023-02-24T23:48:35.606Z,95547.53
2023-02-24T23:51:20.412Z,95551.81
2023-02-24T23:54:05.328Z,95547.44
2023-02-24T23:56:50.135Z,95554.38
2023-02-24T23:59:35.084Z,95554.59
